Time,TemperatureF,DewpointF,PressureIn,WindDirection,WindDirectionDegrees,WindSpeedMPH,WindSpeedGustMPH,Humidity,HourlyPrecipIn,Conditions,Clouds,dailyrainin,SoftwareType,DateUTC
2013-08-03 00:01:00,59.9,59.3,30.00,SE,139,0.0,0.0,98,0.00,,---,0.00,VWS V14.01,2013-08-03 04:01:00,
2013-08-03 00:02:00,59.9,59.3,30.00,SE,138,0.0,0.0,98,0.00,,---,0.00,VWS V14.01,2013-08-03 04:02:00,
2013-08-03 00:07:00,59.7,58.8,30.00,SE,139,0.0,0.0,97,0.00,,---,0.00,VWS V14.01,2013-08-03 04:07:00,
2013-08-03 00:12:00,59.4,58.5,30.00,SE,138,0.0,0.0,97,0.00,,---,0.00,VWS V14.01,2013-08-03 04:12:00,
2013-08-03 00:17:00,59.2,58.6,30.00,SE,138,0.0,0.0,98,0.00,,---,0.00,VWS V14.01,2013-08-03 04:17:00,
2013-08-03 00:22:00,59.1,58.5,30.00,SE,139,0.0,0.0,98,0.00,,---,0.00,VWS V14.01,2013-08-03 04:22:00,
2013-08-03 00:27:00,58.9,58.3,30.00,SE,139,0.0,0.0,98,0.00,,---,0.00,VWS V14.01,2013-08-03 04:27:00,
2013-08-03 00:32:00,58.6,58.0,30.00,SE,138,0.0,0.0,98,0.00,,---,0.00,VWS V14.01,2013-08-03 04:32:00,
2013-08-03 00:37:00,58.4,57.8,30.00,SE,138,0.0,0.0,98,0.00,,---,0.00,VWS V14.01,2013-08-03 04:37:00,
2013-08-03 00:42:00,58.4,57.8,30.00,SE,139,0.0,0.0,98,0.00,,---,0.00,VWS V14.01,2013-08-03 04:42:00,
2013-08-03 00:47:00,58.3,57.7,30.00,SE,139,0.0,0.0,98,0.00,,---,0.00,VWS V14.01,2013-08-03 04:47:00,
2013-08-03 00:52:00,58.1,57.5,30.00,SE,138,0.0,0.0,98,0.00,,---,0.00,VWS V14.01,2013-08-03 04:52:00,
2013-08-03 00:57:00,57.9,57.3,29.99,SE,138,0.0,0.0,98,0.00,,---,0.00,VWS V14.01,2013-08-03 04:57:00,
2013-08-03 01:02:00,57.7,57.1,29.99,SE,138,0.0,0.0,98,0.00,,---,0.00,VWS V14.01,2013-08-03 05:02:00,
2013-08-03 01:07:00,57.8,57.5,29.99,SE,138,0.0,0.0,99,0.00,,---,0.00,VWS V14.01,2013-08-03 05:07:00,
2013-08-03 01:12:00,57.9,57.6,29.99,SE,138,0.0,0.0,99,0.00,,---,0.00,VWS V14.01,2013-08-03 05:12:00,
2013-08-03 01:17:00,58.0,57.7,29.99,ESE,120,0.0,0.0,99,0.00,,---,0.00,VWS V14.01,2013-08-03 05:17:00,
2013-08-03 01:22:00,58.1,57.8,29.99,ESE,120,0.0,0.0,99,0.00,,---,0.00,VWS V14.01,2013-08-03 05:22:00,
2013-08-03 01:27:00,58.2,57.9,29.99,ESE,120,0.0,0.0,99,0.00,,---,0.00,VWS V14.01,2013-08-03 05:27:00,
2013-08-03 01:32:00,58.2,57.9,29.99,ESE,120,0.0,0.0,99,0.00,,---,0.00,VWS V14.01,2013-08-03 05:32:00,
2013-08-03 01:37:00,58.1,57.8,29.99,ESE,120,0.0,0.0,99,0.00,,---,0.00,VWS V14.01,2013-08-03 05:37:00,
2013-08-03 01:42:00,58.0,57.7,29.99,ESE,120,0.0,0.0,99,0.00,,---,0.00,VWS V14.01,2013-08-03 05:42:00,
2013-08-03 01:47:00,57.9,57.6,29.99,ESE,120,0.0,0.0,99,0.00,,---,0.00,VWS V14.01,2013-08-03 05:47:00,
2013-08-03 01:52:00,57.9,57.6,29.99,ESE,120,0.0,0.0,99,0.00,,---,0.00,VWS V14.01,2013-08-03 05:52:00,
2013-08-03 01:57:00,57.8,57.5,30.00,ESE,120,0.0,0.0,99,0.00,,---,0.00,VWS V14.01,2013-08-03 05:57:00,
2013-08-03 02:02:00,57.8,57.5,30.00,ESE,120,0.0,0.0,99,0.00,,---,0.00,VWS V14.01,2013-08-03 06:02:00,
2013-08-03 02:07:00,57.8,57.5,30.00,ESE,120,0.0,0.0,99,0.00,,---,0.00,VWS V14.01,2013-08-03 06:07:00,
2013-08-03 02:12:00,57.7,57.4,29.99,ESE,120,0.0,0.0,99,0.00,,---,0.00,VWS V14.01,2013-08-03 06:12:00,
2013-08-03 02:17:00,57.6,57.3,29.99,ESE,120,0.0,0.0,99,0.00,,---,0.00,VWS V14.01,2013-08-03 06:17:00,
2013-08-03 02:23:00,57.5,57.2,29.99,ESE,120,0.0,0.0,99,0.00,,---,0.00,VWS V14.01,2013-08-03 06:23:00,
2013-08-03 02:28:00,57.4,57.1,29.98,ESE,120,0.0,0.0,99,0.00,,---,0.00,VWS V14.01,2013-08-03 06:28:00,
2013-08-03 02:33:00,57.5,57.2,29.99,ESE,120,0.0,0.0,99,0.00,,---,0.00,VWS V14.01,2013-08-03 06:33:00,
2013-08-03 02:38:00,57.6,57.3,29.99,ESE,120,0.0,0.0,99,0.00,,---,0.00,VWS V14.01,2013-08-03 06:38:00,
2013-08-03 02:42:00,57.7,57.4,29.99,ESE,120,0.0,0.0,99,0.00,,---,0.00,VWS V14.01,2013-08-03 06:42:00,
2013-08-03 02:48:00,57.8,57.8,29.99,ESE,120,0.0,0.0,100,0.00,,---,0.00,VWS V14.01,2013-08-03 06:48:00,
2013-08-03 02:53:00,57.8,57.5,29.99,ESE,120,0.0,0.0,99,0.00,,---,0.00,VWS V14.01,2013-08-03 06:53:00,
2013-08-03 02:58:00,57.8,57.5,29.99,ESE,120,0.0,0.0,99,0.00,,---,0.00,VWS V14.01,2013-08-03 06:58:00,
2013-08-03 03:03:00,57.7,57.4,29.99,ESE,120,0.0,0.0,99,0.00,,---,0.00,VWS V14.01,2013-08-03 07:03:00,
2013-08-03 03:08:00,57.7,57.4,29.99,ESE,120,0.0,0.0,99,0.00,,---,0.00,VWS V14.01,2013-08-03 07:08:00,
2013-08-03 03:13:00,57.6,57.3,29.99,ESE,120,0.0,0.0,99,0.00,,---,0.00,VWS V14.01,2013-08-03 07:13:00,
2013-08-03 03:18:00,57.5,57.2,29.99,ESE,120,0.0,0.0,99,0.00,,---,0.00,VWS V14.01,2013-08-03 07:18:00,
2013-08-03 03:23:00,57.6,57.6,29.99,SSE,160,0.0,1.0,100,0.00,,---,0.00,VWS V14.01,2013-08-03 07:23:00,
2013-08-03 03:28:00,57.6,57.6,29.99,SSE,160,0.0,1.0,100,0.00,,---,0.00,VWS V14.01,2013-08-03 07:28:00,
2013-08-03 03:33:00,57.7,57.7,30.00,SSE,160,0.0,0.0,100,0.00,,---,0.00,VWS V14.01,2013-08-03 07:33:00,
2013-08-03 03:38:00,57.8,57.8,30.00,SSE,160,0.0,0.0,100,0.00,,---,0.00,VWS V14.01,2013-08-03 07:38:00,
2013-08-03 03:43:00,58.1,58.1,30.00,SSE,160,0.0,0.0,100,0.00,,---,0.00,VWS V14.01,2013-08-03 07:43:00,
2013-08-03 03:48:00,58.1,58.1,30.00,SSE,160,0.0,0.0,100,0.00,,---,0.00,VWS V14.01,2013-08-03 07:48:00,
2013-08-03 03:52:00,58.2,58.2,30.00,SSE,160,0.0,0.0,100,0.00,,---,0.00,VWS V14.01,2013-08-03 07:52:00,
2013-08-03 03:58:00,58.2,58.2,30.00,SSE,160,0.0,0.0,100,0.00,,---,0.00,VWS V14.01,2013-08-03 07:58:00,
2013-08-03 04:03:00,58.2,58.2,30.00,SSE,160,0.0,0.0,100,0.00,,---,0.00,VWS V14.01,2013-08-03 08:03:00,
2013-08-03 04:08:00,58.6,58.6,30.00,SSE,160,0.0,0.0,100,0.00,,---,0.00,VWS V14.01,2013-08-03 08:08:00,
2013-08-03 04:13:00,58.7,58.7,30.00,SSE,160,0.0,0.0,100,0.00,,---,0.00,VWS V14.01,2013-08-03 08:13:00,
2013-08-03 04:18:00,58.7,58.7,30.00,SSE,160,0.0,0.0,100,0.00,,---,0.00,VWS V14.01,2013-08-03 08:18:00,
2013-08-03 04:23:00,58.7,58.7,30.00,SSE,160,0.0,0.0,100,0.00,,---,0.00,VWS V14.01,2013-08-03 08:23:00,
2013-08-03 04:28:00,58.7,58.7,30.00,SSE,160,0.0,0.0,100,0.00,,---,0.00,VWS V14.01,2013-08-03 08:28:00,
2013-08-03 04:33:00,58.7,58.7,30.00,SSE,160,0.0,0.0,100,0.00,,---,0.00,VWS V14.01,2013-08-03 08:33:00,
2013-08-03 04:38:00,58.6,58.6,30.00,SSE,160,0.0,0.0,100,0.00,,---,0.00,VWS V14.01,2013-08-03 08:38:00,
2013-08-03 04:43:00,58.5,58.5,29.99,SSE,160,0.0,0.0,100,0.00,,---,0.00,VWS V14.01,2013-08-03 08:43:00,
2013-08-03 04:48:00,58.3,58.0,29.99,SE,141,0.0,1.0,99,0.00,,---,0.00,VWS V14.01,2013-08-03 08:48:00,
2013-08-03 04:53:00,58.2,57.9,29.99,SE,141,0.0,1.0,99,0.00,,---,0.00,VWS V14.01,2013-08-03 08:53:00,
2013-08-03 04:58:00,58.1,58.1,29.99,SE,141,0.0,1.0,100,0.00,,---,0.00,VWS V14.01,2013-08-03 08:58:00,
2013-08-03 05:03:00,58.1,58.1,29.99,SE,141,0.0,0.0,100,0.00,,---,0.00,VWS V14.01,2013-08-03 09:03:00,
2013-08-03 05:08:00,58.2,58.2,29.98,SE,141,0.0,0.0,100,0.00,,---,0.00,VWS V14.01,2013-08-03 09:08:00,
2013-08-03 05:13:00,58.3,58.3,29.98,SE,142,0.0,1.0,100,0.00,,---,0.00,VWS V14.01,2013-08-03 09:13:00,
2013-08-03 05:18:00,58.5,58.5,29.98,SSW,207,1.0,1.0,100,0.00,,---,0.00,VWS V14.01,2013-08-03 09:18:00,
2013-08-03 05:23:00,58.5,58.5,29.98,SSW,208,0.0,1.0,100,0.00,,---,0.00,VWS V14.01,2013-08-03 09:23:00,
2013-08-03 05:28:00,58.6,58.6,29.98,SSE,159,0.0,1.0,100,0.00,,---,0.00,VWS V14.01,2013-08-03 09:28:00,
2013-08-03 05:33:00,58.7,58.7,29.98,ESE,110,0.0,1.0,100,0.00,,---,0.00,VWS V14.01,2013-08-03 09:33:00,
2013-08-03 05:38:00,58.8,58.8,29.98,ESE,110,0.0,1.0,100,0.00,,---,0.00,VWS V14.01,2013-08-03 09:38:00,
2013-08-03 05:43:00,58.8,58.8,29.98,ESE,110,0.0,1.0,100,0.00,,---,0.00,VWS V14.01,2013-08-03 09:43:00,
2013-08-03 05:48:00,58.8,58.8,29.98,SSE,156,0.0,1.0,100,0.00,,---,0.00,VWS V14.01,2013-08-03 09:48:00,
2013-08-03 05:53:00,58.9,58.9,29.98,SSW,195,0.0,1.0,100,0.00,,---,0.00,VWS V14.01,2013-08-03 09:53:00,
2013-08-03 05:58:00,59.1,59.1,29.99,SSW,195,0.0,1.0,100,0.00,,---,0.00,VWS V14.01,2013-08-03 09:58:00,
2013-08-03 06:03:00,59.1,59.1,29.99,SSW,195,0.0,0.0,100,0.00,,---,0.00,VWS V14.01,2013-08-03 10:03:00,
2013-08-03 06:08:00,59.1,59.1,29.98,SSW,194,0.0,0.0,100,0.00,,---,0.00,VWS V14.01,2013-08-03 10:08:00,
2013-08-03 06:13:00,59.0,59.0,29.99,SSW,194,0.0,0.0,100,0.00,,---,0.00,VWS V14.01,2013-08-03 10:13:00,
2013-08-03 06:18:00,59.1,59.1,29.99,SSW,194,0.0,0.0,100,0.00,,---,0.00,VWS V14.01,2013-08-03 10:18:00,
2013-08-03 06:23:00,59.1,59.1,29.99,SSW,194,0.0,0.0,100,0.00,,---,0.00,VWS V14.01,2013-08-03 10:23:00,
2013-08-03 06:28:00,59.1,59.1,29.99,SSW,194,0.0,0.0,100,0.00,,---,0.00,VWS V14.01,2013-08-03 10:28:00,
2013-08-03 06:33:00,59.1,59.1,29.99,SSW,194,0.0,0.0,100,0.00,,---,0.00,VWS V14.01,2013-08-03 10:33:00,
2013-08-03 06:38:00,59.1,59.1,29.99,SSW,194,0.0,0.0,100,0.00,,---,0.00,VWS V14.01,2013-08-03 10:38:00,
2013-08-03 06:43:00,59.1,59.1,29.99,SSW,194,0.0,0.0,100,0.00,,---,0.00,VWS V14.01,2013-08-03 10:43:00,
2013-08-03 06:48:00,59.2,59.2,29.99,SSW,194,0.0,0.0,100,0.00,,---,0.00,VWS V14.01,2013-08-03 10:48:00,
2013-08-03 06:53:00,59.3,59.3,29.99,SSW,194,0.0,0.0,100,0.00,,---,0.00,VWS V14.01,2013-08-03 10:53:00,
2013-08-03 06:58:00,59.4,59.4,29.98,SSW,200,0.0,0.0,100,0.00,,---,0.00,VWS V14.01,2013-08-03 10:58:00,
2013-08-03 07:03:00,59.5,59.5,29.98,SSW,200,0.0,0.0,100,0.00,,---,0.00,VWS V14.01,2013-08-03 11:03:00,
2013-08-03 07:08:00,59.7,59.7,29.98,SW,215,0.0,4.0,100,0.00,,---,0.00,VWS V14.01,2013-08-03 11:08:00,
2013-08-03 07:13:00,59.9,59.9,29.98,SSE,166,0.0,4.0,100,0.00,,---,0.00,VWS V14.01,2013-08-03 11:13:00,
2013-08-03 07:18:00,60.1,60.1,29.98,SE,132,1.0,4.0,100,0.00,,---,0.00,VWS V14.01,2013-08-03 11:18:00,
2013-08-03 07:23:00,60.4,60.4,29.98,SE,132,0.0,4.0,100,0.00,,---,0.00,VWS V14.01,2013-08-03 11:23:00,
2013-08-03 07:28:00,60.7,60.7,29.98,SE,132,0.0,4.0,100,0.00,,---,0.00,VWS V14.01,2013-08-03 11:28:00,
2013-08-03 07:33:00,60.9,60.6,29.98,SE,132,0.0,0.0,99,0.00,,---,0.00,VWS V14.01,2013-08-03 11:33:00,
2013-08-03 07:38:00,61.3,61.0,29.98,WNW,300,2.0,2.0,99,0.00,,---,0.00,VWS V14.01,2013-08-03 11:38:00,
2013-08-03 07:43:00,61.7,61.1,29.98,SW,225,0.0,2.0,98,0.00,,---,0.00,VWS V14.01,2013-08-03 11:43:00,
2013-08-03 07:48:00,62.1,61.2,29.98,SSW,207,0.0,2.0,97,0.00,,---,0.00,VWS V14.01,2013-08-03 11:48:00,
2013-08-03 07:53:00,62.4,61.2,29.98,WSW,255,0.0,2.0,96,0.00,,---,0.00,VWS V14.01,2013-08-03 11:53:00,
2013-08-03 07:58:00,62.7,61.2,29.98,SSW,200,0.0,2.0,95,0.00,,---,0.00,VWS V14.01,2013-08-03 11:58:00,
2013-08-03 08:04:00,63.2,61.2,29.98,WSW,255,0.0,1.0,93,0.00,,---,0.00,VWS V14.01,2013-08-03 12:04:00,
2013-08-03 08:09:00,63.7,62.0,29.99,WSW,256,0.0,1.0,94,0.00,,---,0.00,VWS V14.01,2013-08-03 12:09:00,
2013-08-03 08:14:00,64.1,61.7,29.99,WNW,284,0.0,1.0,92,0.00,,---,0.00,VWS V14.01,2013-08-03 12:14:00,
2013-08-03 08:19:00,64.3,61.6,29.99,West,274,0.0,1.0,91,0.00,,---,0.00,VWS V14.01,2013-08-03 12:19:00,
2013-08-03 08:24:00,64.5,61.8,29.99,WNW,300,0.0,2.0,91,0.00,,---,0.00,VWS V14.01,2013-08-03 12:24:00,
2013-08-03 08:29:00,64.8,61.8,29.98,SE,145,0.0,2.0,90,0.00,,---,0.00,VWS V14.01,2013-08-03 12:29:00,
2013-08-03 08:34:00,65.6,62.6,29.98,ESE,103,0.0,0.0,90,0.00,,---,0.00,VWS V14.01,2013-08-03 12:34:00,
2013-08-03 08:39:00,66.3,63.0,29.98,SW,221,1.0,1.0,89,0.00,,---,0.00,VWS V14.01,2013-08-03 12:39:00,
2013-08-03 08:44:00,66.4,62.1,29.98,SW,225,0.0,3.0,86,0.00,,---,0.00,VWS V14.01,2013-08-03 12:44:00,
2013-08-03 08:49:00,66.4,62.1,29.98,West,278,0.0,3.0,86,0.00,,---,0.00,VWS V14.01,2013-08-03 12:49:00,
2013-08-03 08:53:00,66.4,61.8,29.98,SSW,195,2.0,5.0,85,0.00,,---,0.00,VWS V14.01,2013-08-03 12:53:00,
2013-08-03 08:59:00,66.6,62.3,29.98,South,186,1.0,6.0,86,0.00,,---,0.00,VWS V14.01,2013-08-03 12:59:00,
2013-08-03 09:03:00,66.7,62.4,29.98,South,188,1.0,4.0,86,0.00,,---,0.00,VWS V14.01,2013-08-03 13:03:00,
2013-08-03 09:09:00,66.8,62.2,29.98,NW,307,2.0,4.0,85,0.00,,---,0.00,VWS V14.01,2013-08-03 13:09:00,
2013-08-03 09:14:00,66.6,61.6,29.98,WSW,254,1.0,4.0,84,0.00,,---,0.00,VWS V14.01,2013-08-03 13:14:00,
2013-08-03 09:18:00,66.8,62.2,29.98,WNW,290,2.0,4.0,85,0.00,,---,0.00,VWS V14.01,2013-08-03 13:18:00,
2013-08-03 09:23:00,67.4,62.1,29.98,WNW,297,0.0,4.0,83,0.00,,---,0.00,VWS V14.01,2013-08-03 13:23:00,
2013-08-03 09:29:00,68.2,62.8,29.98,South,191,2.0,6.0,83,0.00,,---,0.00,VWS V14.01,2013-08-03 13:29:00,
2013-08-03 09:34:00,68.8,62.0,29.98,WSW,249,3.0,6.0,79,0.00,,---,0.00,VWS V14.01,2013-08-03 13:34:00,
2013-08-03 09:39:00,69.1,62.0,29.98,West,268,2.0,6.0,78,0.00,,---,0.00,VWS V14.01,2013-08-03 13:39:00,
2013-08-03 09:44:00,69.1,62.0,29.98,SSW,193,4.0,7.0,78,0.00,,---,0.00,VWS V14.01,2013-08-03 13:44:00,
2013-08-03 09:49:00,69.5,62.3,29.98,NNW,345,2.0,8.0,78,0.00,,---,0.00,VWS V14.01,2013-08-03 13:49:00,
2013-08-03 09:54:00,70.0,62.5,29.98,WSW,250,0.0,8.0,77,0.00,,---,0.00,VWS V14.01,2013-08-03 13:54:00,
2013-08-03 09:59:00,70.7,62.4,29.98,South,169,2.0,8.0,75,0.00,,---,0.00,VWS V14.01,2013-08-03 13:59:00,
2013-08-03 10:04:00,71.1,62.8,29.98,SSE,163,3.0,10.0,75,0.00,,---,0.00,VWS V14.01,2013-08-03 14:04:00,
2013-08-03 10:09:00,71.0,62.3,29.97,SSW,212,4.0,17.0,74,0.00,,---,0.00,VWS V14.01,2013-08-03 14:09:00,
2013-08-03 10:14:00,70.6,62.3,29.97,WSW,241,7.0,17.0,75,0.00,,---,0.00,VWS V14.01,2013-08-03 14:14:00,
2013-08-03 10:19:00,70.4,62.8,29.97,WNW,291,2.0,17.0,77,0.00,,---,0.00,VWS V14.01,2013-08-03 14:19:00,
2013-08-03 10:24:00,70.6,62.7,29.97,SSW,203,6.0,17.0,76,0.00,,---,0.00,VWS V14.01,2013-08-03 14:24:00,
2013-08-03 10:29:00,70.8,62.9,29.97,SSW,207,2.0,17.0,76,0.00,,---,0.00,VWS V14.01,2013-08-03 14:29:00,
2013-08-03 10:34:00,71.1,62.4,29.97,SW,232,5.0,9.0,74,0.00,,---,0.00,VWS V14.01,2013-08-03 14:34:00,
2013-08-03 10:39:00,71.1,62.4,29.97,SW,226,9.0,9.0,74,0.00,,---,0.00,VWS V14.01,2013-08-03 14:39:00,
2013-08-03 10:44:00,71.1,62.8,29.97,WSW,249,2.0,11.0,75,0.00,,---,0.00,VWS V14.01,2013-08-03 14:44:00,
2013-08-03 10:49:00,71.5,63.5,29.97,SW,231,1.0,11.0,76,0.00,,---,0.00,VWS V14.01,2013-08-03 14:49:00,
2013-08-03 10:54:00,72.0,63.7,29.97,SSE,150,0.0,11.0,75,0.00,,---,0.00,VWS V14.01,2013-08-03 14:54:00,
2013-08-03 10:59:00,72.4,62.9,29.96,SSW,212,5.0,11.0,72,0.00,,---,0.00,VWS V14.01,2013-08-03 14:59:00,
2013-08-03 11:04:00,72.5,63.4,29.97,SW,235,6.0,8.0,73,0.00,,---,0.00,VWS V14.01,2013-08-03 15:04:00,
2013-08-03 11:09:00,72.5,63.4,29.97,SW,231,2.0,10.0,73,0.00,,---,0.00,VWS V14.01,2013-08-03 15:09:00,
2013-08-03 11:14:00,72.5,63.0,29.97,WSW,242,5.0,10.0,72,0.00,,---,0.00,VWS V14.01,2013-08-03 15:14:00,
2013-08-03 11:19:00,72.5,63.8,29.97,WSW,248,2.0,11.0,74,0.00,,---,0.00,VWS V14.01,2013-08-03 15:19:00,
2013-08-03 11:24:00,72.5,63.8,29.97,West,276,1.0,11.0,74,0.00,,---,0.00,VWS V14.01,2013-08-03 15:24:00,
2013-08-03 11:29:00,72.8,63.7,29.97,East,90,1.0,11.0,73,0.00,,---,0.00,VWS V14.01,2013-08-03 15:29:00,
2013-08-03 11:34:00,73.0,63.8,29.97,South,176,5.0,11.0,73,0.00,,---,0.00,VWS V14.01,2013-08-03 15:34:00,
2013-08-03 11:39:00,73.3,63.3,29.96,NW,316,2.0,11.0,71,0.00,,---,0.00,VWS V14.01,2013-08-03 15:39:00,
2013-08-03 11:44:00,73.5,64.3,29.96,WNW,287,1.0,11.0,73,0.00,,---,0.00,VWS V14.01,2013-08-03 15:44:00,
2013-08-03 11:49:00,73.2,63.6,29.96,SSW,194,2.0,11.0,72,0.00,,---,0.00,VWS V14.01,2013-08-03 15:49:00,
2013-08-03 11:54:00,73.6,64.0,29.97,NW,323,3.0,11.0,72,0.00,,---,0.00,VWS V14.01,2013-08-03 15:54:00,
2013-08-03 11:59:00,73.9,63.5,29.97,SSE,163,2.0,11.0,70,0.00,,---,0.00,VWS V14.01,2013-08-03 15:59:00,
2013-08-03 12:04:00,74.6,64.6,29.97,North,356,2.0,5.0,71,0.00,,---,0.00,VWS V14.01,2013-08-03 16:04:00,
2013-08-03 12:09:00,73.9,63.5,29.97,SW,231,5.0,8.0,70,0.00,,---,0.00,VWS V14.01,2013-08-03 16:09:00,
2013-08-03 12:14:00,73.1,63.2,29.97,North,6,4.0,8.0,71,0.00,,---,0.00,VWS V14.01,2013-08-03 16:14:00,
2013-08-03 12:19:00,72.2,63.1,29.97,NW,307,4.0,9.0,73,0.00,,---,0.00,VWS V14.01,2013-08-03 16:19:00,
2013-08-03 12:24:00,72.0,62.9,29.96,West,281,1.0,9.0,73,0.00,,---,0.00,VWS V14.01,2013-08-03 16:24:00,
2013-08-03 12:29:00,72.4,62.9,29.96,NNE,32,2.0,9.0,72,0.00,,---,0.00,VWS V14.01,2013-08-03 16:29:00,
2013-08-03 12:34:00,72.8,64.0,29.96,WNW,293,4.0,8.0,74,0.00,,---,0.00,VWS V14.01,2013-08-03 16:34:00,
2013-08-03 12:39:00,73.7,64.5,29.96,WNW,298,3.0,8.0,73,0.00,,---,0.00,VWS V14.01,2013-08-03 16:39:00,
2013-08-03 12:44:00,73.7,63.7,29.96,West,279,4.0,10.0,71,0.00,,---,0.00,VWS V14.01,2013-08-03 16:44:00,
2013-08-03 12:49:00,73.5,63.9,29.96,West,260,4.0,10.0,72,0.00,,---,0.00,VWS V14.01,2013-08-03 16:49:00,
2013-08-03 12:54:00,73.3,63.3,29.96,WNW,284,2.0,10.0,71,0.00,,---,0.00,VWS V14.01,2013-08-03 16:54:00,
2013-08-03 12:59:00,73.1,64.3,29.97,WSW,247,6.0,11.0,74,0.00,,---,0.00,VWS V14.01,2013-08-03 16:59:00,
2013-08-03 13:04:00,73.4,64.2,29.97,WNW,283,7.0,8.0,73,0.00,,---,0.00,VWS V14.01,2013-08-03 17:04:00,
2013-08-03 13:09:00,73.6,65.6,29.96,West,267,3.0,10.0,76,0.00,,---,0.00,VWS V14.01,2013-08-03 17:09:00,
2013-08-03 13:14:00,74.3,64.7,29.96,South,190,2.0,10.0,72,0.00,,---,0.00,VWS V14.01,2013-08-03 17:14:00,
2013-08-03 13:19:00,74.4,63.6,29.96,SSW,211,3.0,12.0,69,0.00,,---,0.00,VWS V14.01,2013-08-03 17:19:00,
2013-08-03 13:24:00,74.5,62.8,29.96,East,101,3.0,12.0,67,0.00,,---,0.00,VWS V14.01,2013-08-03 17:24:00,
2013-08-03 13:29:00,75.1,63.0,29.96,SW,225,3.0,12.0,66,0.00,,---,0.00,VWS V14.01,2013-08-03 17:29:00,
2013-08-03 13:34:00,75.3,65.3,29.95,WNW,302,2.0,5.0,71,0.00,,---,0.00,VWS V14.01,2013-08-03 17:34:00,
2013-08-03 13:39:00,74.9,64.1,29.96,SW,228,4.0,7.0,69,0.00,,---,0.00,VWS V14.01,2013-08-03 17:39:00,
2013-08-03 13:44:00,74.6,63.8,29.96,SSE,158,1.0,10.0,69,0.00,,---,0.00,VWS V14.01,2013-08-03 17:44:00,
2013-08-03 13:49:00,75.3,64.4,29.96,NNE,20,2.0,10.0,69,0.00,,---,0.00,VWS V14.01,2013-08-03 17:49:00,
2013-08-03 13:54:00,75.7,63.5,29.96,WNW,290,2.0,12.0,66,0.00,,---,0.00,VWS V14.01,2013-08-03 17:54:00,
2013-08-03 13:59:00,75.4,63.7,29.96,SW,231,2.0,12.0,67,0.00,,---,0.00,VWS V14.01,2013-08-03 17:59:00,
2013-08-03 14:04:00,74.6,62.5,29.96,West,274,8.0,10.0,66,0.00,,---,0.00,VWS V14.01,2013-08-03 18:04:00,
2013-08-03 14:09:00,74.2,63.8,29.96,WSW,253,2.0,10.0,70,0.00,,---,0.00,VWS V14.01,2013-08-03 18:09:00,
2013-08-03 14:14:00,75.2,63.5,29.96,WSW,253,3.0,10.0,67,0.00,,---,0.00,VWS V14.01,2013-08-03 18:14:00,
2013-08-03 14:19:00,75.3,62.3,29.96,SW,232,6.0,10.0,64,0.00,,---,0.00,VWS V14.01,2013-08-03 18:19:00,
2013-08-03 14:24:00,75.6,64.3,29.95,WSW,242,7.0,10.0,68,0.00,,---,0.00,VWS V14.01,2013-08-03 18:24:00,
2013-08-03 14:29:00,75.7,63.5,29.95,South,184,2.0,3.0,66,0.00,,---,0.00,VWS V14.01,2013-08-03 18:29:00,
2013-08-03 14:34:00,75.8,62.8,29.95,SW,214,3.0,11.0,64,0.00,,---,0.00,VWS V14.01,2013-08-03 18:34:00,
2013-08-03 14:39:00,75.9,62.9,29.95,West,266,1.0,11.0,64,0.00,,---,0.00,VWS V14.01,2013-08-03 18:39:00,
2013-08-03 14:44:00,76.0,63.8,29.95,SSW,210,4.0,11.0,66,0.00,,---,0.00,VWS V14.01,2013-08-03 18:44:00,
2013-08-03 14:49:00,76.4,64.2,29.95,ESE,111,4.0,11.0,66,0.00,,---,0.00,VWS V14.01,2013-08-03 18:49:00,
2013-08-03 14:54:00,76.0,63.4,29.95,SW,226,4.0,11.0,65,0.00,,---,0.00,VWS V14.01,2013-08-03 18:54:00,
2013-08-03 14:59:00,76.2,64.4,29.95,SW,219,1.0,1.0,67,0.00,,---,0.00,VWS V14.01,2013-08-03 18:59:00,
2013-08-03 15:04:00,76.4,63.3,29.95,SW,218,3.0,6.0,64,0.00,,---,0.00,VWS V14.01,2013-08-03 19:04:00,
2013-08-03 15:09:00,76.3,63.2,29.95,SSW,197,7.0,7.0,64,0.00,,---,0.00,VWS V14.01,2013-08-03 19:09:00,
2013-08-03 15:14:00,75.9,62.9,29.95,WSW,238,5.0,9.0,64,0.00,,---,0.00,VWS V14.01,2013-08-03 19:14:00,
2013-08-03 15:19:00,75.1,63.0,29.95,SW,235,5.0,10.0,66,0.00,,---,0.00,VWS V14.01,2013-08-03 19:19:00,
2013-08-03 15:24:00,74.3,62.6,29.95,SW,228,5.0,10.0,67,0.00,,---,0.00,VWS V14.01,2013-08-03 19:24:00,
2013-08-03 15:29:00,73.6,63.2,29.95,WSW,256,2.0,2.0,70,0.00,,---,0.00,VWS V14.01,2013-08-03 19:29:00,
2013-08-03 15:34:00,73.0,62.7,29.95,WNW,297,4.0,8.0,70,0.00,,---,0.00,VWS V14.01,2013-08-03 19:34:00,
2013-08-03 15:39:00,72.7,63.2,29.95,West,278,1.0,8.0,72,0.00,,---,0.00,VWS V14.01,2013-08-03 19:39:00,
2013-08-03 15:44:00,72.5,63.0,29.95,SW,236,2.0,8.0,72,0.00,,---,0.00,VWS V14.01,2013-08-03 19:44:00,
2013-08-03 15:49:00,72.2,62.7,29.95,SSW,195,1.0,8.0,72,0.00,,---,0.00,VWS V14.01,2013-08-03 19:49:00,
2013-08-03 15:54:00,71.8,62.7,29.95,SSW,198,3.0,8.0,73,0.00,,---,0.00,VWS V14.01,2013-08-03 19:54:00,
2013-08-03 15:59:00,71.4,62.7,29.95,SW,224,3.0,4.0,74,0.00,,---,0.00,VWS V14.01,2013-08-03 19:59:00,
2013-08-03 16:04:00,71.1,62.8,29.95,WSW,245,6.0,6.0,75,0.00,,---,0.00,VWS V14.01,2013-08-03 20:04:00,
2013-08-03 16:09:00,70.9,62.6,29.95,WNW,297,1.0,7.0,75,0.00,,---,0.00,VWS V14.01,2013-08-03 20:09:00,
2013-08-03 16:14:00,71.1,63.2,29.95,WNW,295,1.0,7.0,76,0.00,,---,0.00,VWS V14.01,2013-08-03 20:14:00,
2013-08-03 16:19:00,71.2,63.3,29.95,NW,307,0.0,7.0,76,0.00,,---,0.00,VWS V14.01,2013-08-03 20:19:00,
2013-08-03 16:24:00,71.4,63.5,29.95,West,277,3.0,7.0,76,0.00,,---,0.00,VWS V14.01,2013-08-03 20:24:00,
2013-08-03 16:29:00,71.6,63.3,29.95,SW,223,7.0,8.0,75,0.00,,---,0.00,VWS V14.01,2013-08-03 20:29:00,
2013-08-03 16:34:00,71.6,63.3,29.95,WNW,284,3.0,8.0,75,0.00,,---,0.00,VWS V14.01,2013-08-03 20:34:00,
2013-08-03 16:40:00,71.6,63.3,29.95,SSW,212,0.0,8.0,75,0.00,,---,0.00,VWS V14.01,2013-08-03 20:40:00,
2013-08-03 16:45:00,72.0,64.0,29.95,NW,307,0.0,8.0,76,0.00,,---,0.00,VWS V14.01,2013-08-03 20:45:00,
2013-08-03 16:50:00,72.2,63.5,29.94,SW,215,2.0,8.0,74,0.00,,---,0.00,VWS V14.01,2013-08-03 20:50:00,
2013-08-03 16:55:00,72.2,63.8,29.94,SW,222,2.0,8.0,75,0.00,,---,0.00,VWS V14.01,2013-08-03 20:55:00,
2013-08-03 17:00:00,72.3,64.3,29.94,SW,233,1.0,3.0,76,0.00,,---,0.00,VWS V14.01,2013-08-03 21:00:00,
2013-08-03 17:05:00,72.4,64.4,29.94,NW,311,3.0,6.0,76,0.00,,---,0.00,VWS V14.01,2013-08-03 21:05:00,
2013-08-03 17:09:00,72.7,64.3,29.94,SW,225,2.0,6.0,75,0.00,,---,0.00,VWS V14.01,2013-08-03 21:09:00,
2013-08-03 17:14:00,72.8,65.2,29.94,SW,225,3.0,6.0,77,0.00,,---,0.00,VWS V14.01,2013-08-03 21:14:00,
2013-08-03 17:20:00,73.1,65.5,29.93,SSW,207,1.0,6.0,77,0.00,,---,0.00,VWS V14.01,2013-08-03 21:20:00,
2013-08-03 17:24:00,73.5,64.7,29.93,WSW,253,1.0,6.0,74,0.00,,---,0.00,VWS V14.01,2013-08-03 21:24:00,
2013-08-03 17:30:00,73.3,65.3,29.93,SW,218,5.0,5.0,76,0.00,,---,0.00,VWS V14.01,2013-08-03 21:30:00,
2013-08-03 17:35:00,72.9,64.9,29.94,SSW,206,0.0,5.0,76,0.00,,---,0.00,VWS V14.01,2013-08-03 21:35:00,
2013-08-03 17:40:00,72.7,65.1,29.94,WSW,253,1.0,5.0,77,0.00,,---,0.00,VWS V14.01,2013-08-03 21:40:00,
2013-08-03 17:45:00,72.5,64.9,29.94,SW,222,0.0,5.0,77,0.00,,---,0.00,VWS V14.01,2013-08-03 21:45:00,
2013-08-03 17:50:00,72.6,64.6,29.94,South,184,2.0,7.0,76,0.00,,---,0.00,VWS V14.01,2013-08-03 21:50:00,
2013-08-03 17:55:00,72.6,64.6,29.94,WSW,253,3.0,7.0,76,0.00,,---,0.00,VWS V14.01,2013-08-03 21:55:00,
2013-08-03 18:00:00,72.5,64.5,29.93,SSW,210,1.0,1.0,76,0.00,,---,0.00,VWS V14.01,2013-08-03 22:00:00,
2013-08-03 18:05:00,72.4,64.4,29.93,WSW,245,4.0,5.0,76,0.00,,---,0.00,VWS V14.01,2013-08-03 22:05:00,
2013-08-03 18:10:00,72.2,64.2,29.93,WSW,243,2.0,6.0,76,0.00,,---,0.00,VWS V14.01,2013-08-03 22:10:00,
2013-08-03 18:15:00,72.1,64.5,29.93,WNW,302,1.0,6.0,77,0.00,,---,0.00,VWS V14.01,2013-08-03 22:15:00,
2013-08-03 18:20:00,72.1,64.5,29.93,West,276,1.0,6.0,77,0.00,,---,0.00,VWS V14.01,2013-08-03 22:20:00,
2013-08-03 18:24:00,71.9,64.7,29.93,SW,231,1.0,6.0,78,0.00,,---,0.00,VWS V14.01,2013-08-03 22:24:00,
2013-08-03 18:30:00,71.5,64.3,29.92,SSW,203,1.0,5.0,78,0.00,,---,0.00,VWS V14.01,2013-08-03 22:30:00,
2013-08-03 18:35:00,71.4,64.2,29.93,West,269,1.0,5.0,78,0.00,,---,0.00,VWS V14.01,2013-08-03 22:35:00,
2013-08-03 18:40:00,71.4,64.6,29.92,WNW,291,6.0,7.0,79,0.00,,---,0.00,VWS V14.01,2013-08-03 22:40:00,
2013-08-03 18:45:00,71.3,64.1,29.92,WSW,247,3.0,7.0,78,0.00,,---,0.00,VWS V14.01,2013-08-03 22:45:00,
2013-08-03 18:50:00,71.2,64.4,29.92,SW,226,1.0,7.0,79,0.00,,---,0.00,VWS V14.01,2013-08-03 22:50:00,
2013-08-03 18:55:00,71.1,64.6,29.92,WNW,283,1.0,7.0,80,0.00,,---,0.00,VWS V14.01,2013-08-03 22:55:00,
2013-08-03 19:00:00,71.0,64.5,29.92,WSW,252,0.0,2.0,80,0.00,,---,0.00,VWS V14.01,2013-08-03 23:00:00,
2013-08-03 19:05:00,70.9,64.4,29.92,WNW,300,0.0,3.0,80,0.00,,---,0.00,VWS V14.01,2013-08-03 23:05:00,
2013-08-03 19:10:00,70.7,64.6,29.92,SW,226,1.0,3.0,81,0.00,,---,0.00,VWS V14.01,2013-08-03 23:10:00,
2013-08-03 19:15:00,70.6,64.5,29.92,WSW,243,1.0,4.0,81,0.00,,---,0.00,VWS V14.01,2013-08-03 23:15:00,
2013-08-03 19:20:00,70.5,64.4,29.92,South,186,4.0,6.0,81,0.00,,---,0.00,VWS V14.01,2013-08-03 23:20:00,
2013-08-03 19:25:00,70.4,64.3,29.92,West,269,1.0,6.0,81,0.00,,---,0.00,VWS V14.01,2013-08-03 23:25:00,
2013-08-03 19:30:00,70.3,64.2,29.92,WSW,239,1.0,1.0,81,0.00,,---,0.00,VWS V14.01,2013-08-03 23:30:00,
2013-08-03 19:35:00,70.3,64.2,29.92,WSW,250,3.0,3.0,81,0.00,,---,0.00,VWS V14.01,2013-08-03 23:35:00,
2013-08-03 19:40:00,70.2,64.1,29.92,SW,235,1.0,3.0,81,0.00,,---,0.00,VWS V14.01,2013-08-03 23:40:00,
2013-08-03 19:45:00,70.1,64.4,29.93,SSW,193,2.0,3.0,82,0.00,,---,0.00,VWS V14.01,2013-08-03 23:45:00,
2013-08-03 19:50:00,69.9,64.2,29.93,NW,316,1.0,3.0,82,0.00,,---,0.00,VWS V14.01,2013-08-03 23:50:00,
2013-08-03 19:55:00,69.8,64.4,29.93,WNW,291,0.0,3.0,83,0.00,,---,0.00,VWS V14.01,2013-08-03 23:55:00,
2013-08-03 20:00:00,69.7,64.7,29.93,NNE,29,0.0,0.0,84,0.00,,---,0.00,VWS V14.01,2013-08-04 00:00:00,
2013-08-03 20:05:00,69.3,64.6,29.93,WNW,283,0.0,3.0,85,0.01,,---,0.01,VWS V14.01,2013-08-04 00:05:00,
2013-08-03 20:10:00,68.7,65.0,29.93,WNW,297,1.0,3.0,88,0.02,,---,0.02,VWS V14.01,2013-08-04 00:10:00,
2013-08-03 20:15:00,67.9,64.5,29.93,NW,325,0.0,3.0,89,0.02,,---,0.02,VWS V14.01,2013-08-04 00:15:00,
2013-08-03 20:20:00,67.5,64.8,29.93,North,359,0.0,3.0,91,0.02,,---,0.02,VWS V14.01,2013-08-04 00:20:00,
2013-08-03 20:25:00,67.1,64.7,29.93,North,358,1.0,3.0,92,0.02,,---,0.02,VWS V14.01,2013-08-04 00:25:00,
2013-08-03 20:30:00,66.8,64.4,29.93,SW,215,0.0,0.0,92,0.02,,---,0.02,VWS V14.01,2013-08-04 00:30:00,
2013-08-03 20:35:00,66.5,64.4,29.93,WSW,246,0.0,1.0,93,0.02,,---,0.02,VWS V14.01,2013-08-04 00:35:00,
2013-08-03 20:40:00,66.3,64.5,29.93,SW,228,1.0,2.0,94,0.02,,---,0.02,VWS V14.01,2013-08-04 00:40:00,
2013-08-03 20:45:00,66.1,64.6,29.93,SW,221,1.0,2.0,95,0.02,,---,0.02,VWS V14.01,2013-08-04 00:45:00,
2013-08-03 20:50:00,66.0,64.5,29.93,SW,233,0.0,2.0,95,0.02,,---,0.02,VWS V14.01,2013-08-04 00:50:00,
2013-08-03 20:55:00,65.9,64.4,29.93,SW,235,0.0,3.0,95,0.02,,---,0.02,VWS V14.01,2013-08-04 00:55:00,
2013-08-03 21:00:00,65.8,64.6,29.93,WSW,243,0.0,1.0,96,0.02,,---,0.02,VWS V14.01,2013-08-04 01:00:00,
2013-08-03 21:05:00,65.8,64.6,29.93,WSW,253,0.0,1.0,96,0.02,,---,0.02,VWS V14.01,2013-08-04 01:05:00,
2013-08-03 21:10:00,65.8,64.6,29.94,West,273,0.0,2.0,96,0.02,,---,0.02,VWS V14.01,2013-08-04 01:10:00,
2013-08-03 21:15:00,65.7,64.5,29.94,SW,226,1.0,3.0,96,0.02,,---,0.02,VWS V14.01,2013-08-04 01:15:00,
2013-08-03 21:20:00,65.6,64.4,29.93,West,273,1.0,3.0,96,0.02,,---,0.02,VWS V14.01,2013-08-04 01:20:00,
2013-08-03 21:25:00,65.6,64.4,29.93,WSW,248,0.0,4.0,96,0.02,,---,0.02,VWS V14.01,2013-08-04 01:25:00,
2013-08-03 21:30:00,65.5,64.3,29.94,West,278,0.0,2.0,96,0.00,,---,0.02,VWS V14.01,2013-08-04 01:30:00,
2013-08-03 21:35:00,65.4,64.2,29.94,NNW,346,0.0,2.0,96,0.00,,---,0.02,VWS V14.01,2013-08-04 01:35:00,
2013-08-03 21:40:00,65.4,64.5,29.94,NNE,18,0.0,2.0,97,0.00,,---,0.02,VWS V14.01,2013-08-04 01:40:00,
2013-08-03 21:45:00,65.4,64.5,29.94,NNE,18,0.0,2.0,97,0.00,,---,0.02,VWS V14.01,2013-08-04 01:45:00,
2013-08-03 21:50:00,65.3,64.4,29.94,NNE,19,0.0,2.0,97,0.00,,---,0.02,VWS V14.01,2013-08-04 01:50:00,
2013-08-03 21:55:00,65.3,64.4,29.95,NNE,20,0.0,2.0,97,0.00,,---,0.02,VWS V14.01,2013-08-04 01:55:00,
2013-08-03 22:00:00,65.3,64.4,29.94,NNE,21,0.0,1.0,97,0.00,,---,0.02,VWS V14.01,2013-08-04 02:00:00,
2013-08-03 22:05:00,65.3,64.4,29.94,NNE,21,0.0,1.0,97,0.00,,---,0.02,VWS V14.01,2013-08-04 02:05:00,
2013-08-03 22:10:00,65.2,64.3,29.94,NNE,22,0.0,1.0,97,0.00,,---,0.02,VWS V14.01,2013-08-04 02:10:00,
2013-08-03 22:15:00,65.1,64.5,29.95,West,270,0.0,1.0,98,0.00,,---,0.02,VWS V14.01,2013-08-04 02:15:00,
2013-08-03 22:20:00,65.1,64.5,29.95,SW,215,0.0,1.0,98,0.00,,---,0.02,VWS V14.01,2013-08-04 02:20:00,
2013-08-03 22:25:00,65.1,64.5,29.94,SW,217,0.0,1.0,98,0.00,,---,0.02,VWS V14.01,2013-08-04 02:25:00,
2013-08-03 22:30:00,65.1,64.5,29.94,SW,216,0.0,0.0,98,0.00,,---,0.02,VWS V14.01,2013-08-04 02:30:00,
2013-08-03 22:35:00,65.1,64.5,29.94,SW,216,0.0,0.0,98,0.00,,---,0.02,VWS V14.01,2013-08-04 02:35:00,
2013-08-03 22:40:00,65.2,64.6,29.94,SW,233,0.0,0.0,98,0.00,,---,0.02,VWS V14.01,2013-08-04 02:40:00,
2013-08-03 22:45:00,65.1,64.5,29.94,SW,233,0.0,0.0,98,0.00,,---,0.02,VWS V14.01,2013-08-04 02:45:00,
2013-08-03 22:50:00,64.9,64.3,29.93,SW,233,0.0,0.0,98,0.00,,---,0.02,VWS V14.01,2013-08-04 02:50:00,
2013-08-03 22:55:00,64.7,64.1,29.94,SW,233,0.0,0.0,98,0.00,,---,0.02,VWS V14.01,2013-08-04 02:55:00,
2013-08-03 23:00:00,64.6,64.0,29.94,SW,233,0.0,0.0,98,0.00,,---,0.02,VWS V14.01,2013-08-04 03:00:00,
2013-08-03 23:05:00,64.7,64.4,29.94,SW,233,0.0,0.0,99,0.00,,---,0.02,VWS V14.01,2013-08-04 03:05:00,
2013-08-03 23:10:00,64.6,64.3,29.94,SW,233,0.0,0.0,99,0.00,,---,0.02,VWS V14.01,2013-08-04 03:10:00,
2013-08-03 23:15:00,64.6,64.3,29.94,SW,222,0.0,0.0,99,0.00,,---,0.02,VWS V14.01,2013-08-04 03:15:00,
2013-08-03 23:20:00,64.6,64.3,29.94,SW,222,0.0,0.0,99,0.00,,---,0.02,VWS V14.01,2013-08-04 03:20:00,
2013-08-03 23:25:00,64.7,64.4,29.94,SW,222,0.0,0.0,99,0.00,,---,0.02,VWS V14.01,2013-08-04 03:25:00,
2013-08-03 23:30:00,64.7,64.4,29.94,SW,222,0.0,0.0,99,0.00,,---,0.02,VWS V14.01,2013-08-04 03:30:00,
2013-08-03 23:35:00,64.8,64.5,29.94,SW,223,0.0,0.0,99,0.00,,---,0.02,VWS V14.01,2013-08-04 03:35:00,
2013-08-03 23:40:00,64.8,64.5,29.94,SW,222,0.0,0.0,99,0.00,,---,0.02,VWS V14.01,2013-08-04 03:40:00,
2013-08-03 23:45:00,64.8,64.5,29.94,SW,222,0.0,0.0,99,0.00,,---,0.02,VWS V14.01,2013-08-04 03:45:00,
2013-08-03 23:50:00,64.7,64.4,29.94,SW,222,0.0,0.0,99,0.00,,---,0.02,VWS V14.01,2013-08-04 03:50:00,
2013-08-03 23:55:00,64.7,64.4,29.94,SW,225,0.0,0.0,99,0.00,,---,0.02,VWS V14.01,2013-08-04 03:55:00,